KBDE/BDE METAR and TAF weather

Enter ICAO airport designator
Station Type Date Time Source
KBDE METAR 2020/01/23 20:53 UTC NOAA

KBDE 232053Z AUTO 07005KT 10SM OVC015 M04/M07 A3018 RMK AO2 SLP240 T10391072 53000


Station Type Date Time Source
KBDE Decoded METAR 2020/01/23 20:53 UTC NOAA

BAUDETTE INTERNATIONAL AIRPORT, MN, United States (KBDE) 48-44N 94-37W 329M
Jan 23, 2020 - 03:53 PM EST / 2020.01.23 2053 UTC
Wind: from the ENE (070 degrees) at 6 MPH (5 KT):0
Visibility: 10 mile(s):0
Sky conditions: overcast
Temperature: 25.0 F (-3.9 C)
Windchill: 17 F (-8 C):1
Dew Point: 19.0 F (-7.2 C)
Relative Humidity: 77%
Pressure (altimeter): 30.18 in. Hg (1022 hPa)
Pressure tendency: 0.00 inches (0.0 hPa) higher than three hours ago
ob: KBDE 232053Z AUTO 07005KT 10SM OVC015 M04/M07 A3018 RMK AO2 SLP240 T10391072 53000
cycle: 21

Station Type Date Time Source
KBDE TAF UTC NOAA

Error!

Example: see airport list